Snohomish, Washington
Current Conditions -  °F | °C
As of 8:37 AM on Friday 19 Dec 2014 (Local Time) from KPAE Reporting Station
Overcast Overcast  
Wind Chill: 37°   Ceiling: 800
Heat Index: 44°   Visibility: 10mi
Dew Point: 41°   Wind: 16mph
Humidity: 89%   Direction: 190°S
Pressure: 29.87"   Gusts: NA
Location:  47.91°N, 122.09°W
Report Text: KPAE 191637Z 19014KT 10SM BKN008 BKN029 OVC100 07/05 A2987 RMK AO2 RAE25 P0000 T00670050
Loading
Personal Weather Stations






























Interactive Weather Map New forecast layout! Learn more

10-Day Weather Forecast

Advertisements
Track Severe Weather on mobile